Time;durP1;ratioP1;P1;durP2;ratioP2;P2;SDS_P1;SDS_P2;PMS_P1;PMS_P2;Temp;Humidity;BMP_temperature;BMP_pressure;BME280_temperature;BME280_humidity;BME280_pressure;Samples;Min_cycle;Max_cycle;Signal;HPM_P1;HPM_P2
2021/04/12 00:00:26;;;;;;;;;;;;;;;20.97;48.07;101237.34;2092026;28;1867;-71
2021/04/12 00:01:27;;;;;;;;;;;;;;;20.97;48.04;101237.34;2092529;28;1968;-73
2021/04/12 00:02:28;;;;;;;;;;;;;;;20.99;48.08;101246.38;2083423;28;2599;-72
2021/04/12 00:03:29;;;;;;;;;;;;;;;20.99;47.97;101244.38;2082690;28;1745;-75
2021/04/12 00:04:29;;;;;;;;;;;;;;;20.99;48.05;101238.69;2093080;28;1680;-70
2021/04/12 00:05:30;;;;;;;;;;;;;;;21.00;48.22;101239.50;2080569;28;1926;-73
2021/04/12 00:06:31;;;;;;;;;;;;;;;21.00;48.41;101228.13;2079731;28;2066;-72
2021/04/12 00:07:31;;;;;;;;;;;;;;;21.00;48.33;101226.13;2089274;28;1782;-72
2021/04/12 00:08:32;;;;;;;;;;;;;;;21.00;48.10;101231.81;2085985;28;2137;-71
2021/04/12 00:09:33;;;;;;;;;;;;;;;21.01;48.22;101244.03;2085277;28;1925;-72
2021/04/12 00:10:34;;;;;;;;;;;;;;;21.02;48.20;101237.16;2092092;28;1529;-72
2021/04/12 00:11:34;;;;;;;;;;;;;;;21.01;48.43;101235.50;2089773;28;1981;-71
2021/04/12 00:12:35;;;;;;;;;;;;;;;21.02;48.34;101228.63;2089691;28;1644;-73
2021/04/12 00:13:36;;;;;;;;;;;;;;;21.01;48.25;101222.09;2089366;28;1420;-72
2021/04/12 00:14:37;;;;;;;;;;;;;;;21.01;48.28;101218.44;2085609;28;1997;-72
2021/04/12 00:15:37;;;;;;;;;;;;;;;21.02;48.43;101235.16;2092529;28;1509;-72
2021/04/12 00:16:38;;;;;;;;;;;;;;;21.02;48.29;101243.69;2090316;28;1913;-72
2021/04/12 00:17:39;;;;;;;;;;;;;;;21.02;48.33;101248.53;2091193;28;1970;-73
2021/04/12 00:18:40;;;;;;;;;;;;;;;21.02;48.47;101260.75;2089010;28;2086;-74
2021/04/12 00:19:41;;;;;;;;;;;;;;;21.03;48.47;101264.41;2091162;28;1906;-73
2021/04/12 00:20:42;;;;;;;;;;;;;;;21.03;48.51;101264.41;2089227;28;1640;-71
2021/04/12 00:21:43;;;;;;;;;;;;;;;21.03;48.43;101259.56;2086103;28;2048;-70
2021/04/12 00:22:43;;;;;;;;;;;;;;;21.03;48.41;101258.72;2094056;28;2229;-71
2021/04/12 00:23:44;;;;;;;;;;;;;;;21.03;48.59;101253.88;2090143;28;2198;-71
2021/04/12 00:24:45;;;;;;;;;;;;;;;21.04;48.46;101244.19;2094343;28;1585;-71
2021/04/12 00:25:45;;;;;;;;;;;;;;;21.04;48.68;101249.03;2088441;28;2393;-70
2021/04/12 00:26:46;;;;;;;;;;;;;;;21.05;48.51;101253.53;2086460;28;2435;-71
2021/04/12 00:27:47;;;;;;;;;;;;;;;21.04;48.66;101258.41;2093391;28;1866;-70
2021/04/12 00:28:48;;;;;;;;;;;;;;;21.05;48.49;101253.53;2093997;28;1613;-71
2021/04/12 00:29:48;;;;;;;;;;;;;;;21.04;48.61;101254.72;2090539;28;1965;-70
2021/04/12 00:30:49;;;;;;;;;;;;;;;21.05;48.48;101253.53;2093470;28;1890;-71
2021/04/12 00:31:50;;;;;;;;;;;;;;;21.05;48.67;101253.53;2092718;28;2030;-71
2021/04/12 00:32:51;;;;;;;;;;;;;;;21.05;48.72;101262.91;2090689;28;2039;-71
2021/04/12 00:33:51;;;;;;;;;;;;;;;21.06;48.61;101261.75;2092720;28;2019;-71
2021/04/12 00:34:52;;;;;;;;;;;;;;;21.06;48.65;101264.59;2090415;28;2023;-70
2021/04/12 00:35:53;;;;;;;;;;;;;;;21.07;48.96;101257.72;2091071;28;2742;-72
2021/04/12 00:36:54;;;;;;;;;;;;;;;21.08;48.71;101261.38;2094325;28;1898;-72
2021/04/12 00:37:54;;;;;;;;;;;;;;;21.07;48.85;101256.88;2088777;28;2154;-75
2021/04/12 00:38:55;;;;;;;;;;;;;;;21.08;48.79;101261.38;2093379;28;1921;-76
2021/04/12 00:39:56;;;;;;;;;;;;;;;21.07;48.75;101262.56;2089448;28;2000;-76
2021/04/12 00:40:57;;;;;;;;;;;;;;;21.08;48.79;101267.91;2091968;28;2033;-74
2021/04/12 00:41:57;;;;;;;;;;;;;;;21.08;48.78;101272.75;2094011;28;1522;-74
2021/04/12 00:42:58;;;;;;;;;;;;;;;21.09;48.91;101265.91;2092512;28;2013;-74
2021/04/12 00:43:59;;;;;;;;;;;;;;;21.08;48.81;101270.75;2090961;28;1746;-73
2021/04/12 00:45:00;;;;;;;;;;;;;;;21.09;48.83;101269.59;2092209;28;2017;-74
2021/04/12 00:46:00;;;;;;;;;;;;;;;21.09;48.92;101260.22;2090763;28;2216;-73
2021/04/12 00:47:01;;;;;;;;;;;;;;;21.09;48.81;101263.06;2093468;28;1991;-73
2021/04/12 00:48:02;;;;;;;;;;;;;;;21.10;49.03;101264.72;2093703;28;2243;-74
2021/04/12 00:49:03;;;;;;;;;;;;;;;21.10;48.93;101268.41;2093136;28;2066;-75
2021/04/12 00:50:04;;;;;;;;;;;;;;;21.09;48.97;101261.06;2089286;28;2027;-74
2021/04/12 00:51:04;;;;;;;;;;;;;;;21.09;48.98;101268.75;2090654;28;1885;-74
2021/04/12 00:52:05;;;;;;;;;;;;;;;21.10;48.95;101273.25;2091715;28;2039;-75
2021/04/12 00:53:06;;;;;;;;;;;;;;;21.09;48.81;101265.91;2091192;28;1474;-69
2021/04/12 00:54:07;;;;;;;;;;;;;;;21.10;48.82;101271.25;2093094;28;1787;-69
2021/04/12 00:55:07;;;;;;;;;;;;;;;21.09;49.01;101268.75;2091262;28;1831;-75
2021/04/12 00:56:08;;;;;;;;;;;;;;;21.09;48.95;101265.91;2093242;28;1532;-75
2021/04/12 00:57:09;;;;;;;;;;;;;;;21.10;49.04;101268.41;2091452;28;1984;-75
2021/04/12 00:58:10;;;;;;;;;;;;;;;21.10;49.07;101261.88;2092844;28;1555;-74
2021/04/12 00:59:10;;;;;;;;;;;;;;;21.10;49.08;101270.41;2092715;28;1786;-74
2021/04/12 01:00:11;;;;;;;;;;;;;;;21.10;48.95;101268.41;2092652;28;1639;-73
2021/04/12 01:01:12;;;;;;;;;;;;;;;21.11;49.09;101292.00;2092755;28;1781;-74
2021/04/12 01:02:13;;;;;;;;;;;;;;;21.11;48.91;101283.47;2092433;28;1681;-73
2021/04/12 01:03:13;;;;;;;;;;;;;;;21.11;48.98;101286.31;2087310;28;2077;-73
2021/04/12 01:04:14;;;;;;;;;;;;;;;21.10;48.89;101285.47;2089382;28;1910;-73
2021/04/12 01:05:15;;;;;;;;;;;;;;;21.11;49.08;101286.31;2090385;28;1894;-73
2021/04/12 01:06:16;;;;;;;;;;;;;;;21.11;48.99;101284.28;2091457;28;1697;-74
2021/04/12 01:07:16;;;;;;;;;;;;;;;21.11;48.86;101287.13;2092560;28;1981;-74
2021/04/12 01:08:17;;;;;;;;;;;;;;;21.12;48.91;101288.81;2088923;28;2008;-74
2021/04/12 01:09:18;;;;;;;;;;;;;;;21.11;49.07;101295.66;2091892;28;1917;-71
2021/04/12 01:10:19;;;;;;;;;;;;;;;21.11;48.96;101287.13;2092182;28;2114;-70
2021/04/12 01:11:19;;;;;;;;;;;;;;;21.12;49.11;101285.97;2090563;28;1823;-71
2021/04/12 01:12:20;;;;;;;;;;;;;;;21.13;48.78;101289.66;2085741;28;2008;-71
2021/04/12 01:13:21;;;;;;;;;;;;;;;21.13;49.08;101289.66;2082557;28;1883;-71
2021/04/12 01:14:21;;;;;;;;;;;;;;;21.12;49.03;101294.50;2091718;28;1504;-71
2021/04/12 01:15:22;;;;;;;;;;;;;;;21.13;48.99;101286.81;2087054;28;1914;-71
2021/04/12 01:16:23;;;;;;;;;;;;;;;21.12;49.01;101288.81;2090711;28;1967;-70
2021/04/12 01:17:24;;;;;;;;;;;;;;;21.13;49.13;101281.94;2091662;28;1495;-70
2021/04/12 01:18:25;;;;;;;;;;;;;;;21.13;49.14;101286.81;2086041;28;1948;-70
2021/04/12 01:19:26;;;;;;;;;;;;;;;21.13;49.17;101299.00;2090294;28;1676;-73
2021/04/12 01:20:26;;;;;;;;;;;;;;;21.14;49.22;101297.00;2090944;28;1421;-72
2021/04/12 01:21:27;;;;;;;;;;;;;;;21.13;49.16;101301.03;2091375;28;1440;-72
2021/04/12 01:22:28;;;;;;;;;;;;;;;21.13;49.04;101301.84;2090963;28;1709;-72
2021/04/12 01:23:29;;;;;;;;;;;;;;;21.13;49.08;101301.03;2087742;28;1819;-72
2021/04/12 01:24:29;;;;;;;;;;;;;;;21.15;49.07;101312.06;2090778;28;1691;-72
2021/04/12 01:25:30;;;;;;;;;;;;;;;21.13;49.07;101304.69;2088433;28;1858;-72
2021/04/12 01:26:31;;;;;;;;;;;;;;;21.14;49.14;101308.38;2089240;28;1993;-72
2021/04/12 01:27:32;;;;;;;;;;;;;;;21.13;49.08;101303.88;2089559;28;1910;-73
2021/04/12 01:28:33;;;;;;;;;;;;;;;21.13;49.20;101304.69;2089259;28;1872;-71
2021/04/12 01:29:34;;;;;;;;;;;;;;;21.15;49.12;101306.38;2083226;28;2040;-72
2021/04/12 01:30:35;;;;;;;;;;;;;;;21.15;49.35;101304.38;2087208;28;1839;-71
2021/04/12 01:31:46;;;;;;;;;;;;;;;21.15;49.14;101309.22;2080278;28;1731;-71
2021/04/12 01:32:47;;;;;;;;;;;;;;;21.15;49.22;101309.22;2075321;28;1895;-71
2021/04/12 01:33:48;;;;;;;;;;;;;;;21.15;49.30;101304.38;2088896;28;1910;-71
2021/04/12 01:34:48;;;;;;;;;;;;;;;21.15;49.36;101314.94;2088982;28;1917;-71
2021/04/12 01:35:49;;;;;;;;;;;;;;;21.15;49.17;101315.75;2092268;28;2264;-71
2021/04/12 01:36:50;;;;;;;;;;;;;;;21.16;49.20;101317.41;2085174;28;1842;-73
2021/04/12 01:37:51;;;;;;;;;;;;;;;21.16;49.36;101319.44;2092747;28;1929;-73
2021/04/12 01:38:52;;;;;;;;;;;;;;;21.16;49.15;101327.97;2096056;28;1614;-73
2021/04/12 01:39:52;;;;;;;;;;;;;;;21.16;49.29;101322.28;2088937;28;1732;-73
2021/04/12 01:40:53;;;;;;;;;;;;;;;21.16;49.25;101327.97;2094370;28;1651;-71
2021/04/12 01:41:54;;;;;;;;;;;;;;;21.15;49.21;101332.81;2092211;28;1632;-72
2021/04/12 01:42:54;;;;;;;;;;;;;;;21.15;49.43;101327.13;2092862;28;1849;-72
2021/04/12 01:43:55;;;;;;;;;;;;;;;21.15;49.26;101329.97;2092236;28;1539;-72
2021/04/12 01:44:56;;;;;;;;;;;;;;;21.16;49.37;101328.78;2086747;28;1874;-72
2021/04/12 01:45:57;;;;;;;;;;;;;;;21.16;49.37;101337.31;2095124;28;1504;-71
2021/04/12 01:46:58;;;;;;;;;;;;;;;21.17;49.27;101341.00;2090284;28;1967;-71
2021/04/12 01:47:59;;;;;;;;;;;;;;;21.16;49.51;101340.16;2089631;28;1921;-72
2021/04/12 01:49:00;;;;;;;;;;;;;;;21.17;49.28;101341.00;2093604;28;1559;-71
2021/04/12 01:50:01;;;;;;;;;;;;;;;21.17;49.37;101341.00;2090339;28;1984;-73
2021/04/12 01:51:01;;;;;;;;;;;;;;;21.17;49.36;101344.69;2093236;28;1611;-72
2021/04/12 01:52:02;;;;;;;;;;;;;;;21.17;49.50;101353.22;2095487;28;1582;-72
2021/04/12 01:53:03;;;;;;;;;;;;;;;21.17;49.41;101363.75;2088563;28;1846;-72
2021/04/12 01:54:04;;;;;;;;;;;;;;;21.18;49.93;101369.13;2094388;28;1591;-74
2021/04/12 01:55:04;;;;;;;;;;;;;;;21.18;49.51;101363.44;2089997;28;1929;-69
2021/04/12 01:56:05;;;;;;;;;;;;;;;21.18;49.68;101365.44;2090897;28;1747;-73
2021/04/12 01:57:06;;;;;;;;;;;;;;;21.17;49.63;101361.75;2088578;28;2130;-72
2021/04/12 01:58:07;;;;;;;;;;;;;;;21.18;49.50;101365.44;2091852;28;1925;-73
2021/04/12 01:59:07;;;;;;;;;;;;;;;21.17;49.49;101361.75;2094922;28;1440;-71
2021/04/12 02:00:08;;;;;;;;;;;;;;;21.17;49.51;101358.91;2088911;28;1921;-76
2021/04/12 02:01:09;;;;;;;;;;;;;;;21.17;49.34;101358.91;2092362;28;1886;-75
2021/04/12 02:02:10;;;;;;;;;;;;;;;21.17;49.43;101358.91;2084320;28;1820;-75
2021/04/12 02:03:11;;;;;;;;;;;;;;;21.18;49.46;101362.59;2078974;28;1949;-75
2021/04/12 02:04:11;;;;;;;;;;;;;;;21.18;49.64;101356.91;2092104;28;1481;-75
2021/04/12 02:05:12;;;;;;;;;;;;;;;21.17;49.59;101367.44;2081770;28;1879;-73
2021/04/12 02:06:13;;;;;;;;;;;;;;;21.17;49.64;101370.28;2084188;28;1579;-72
2021/04/12 02:07:14;;;;;;;;;;;;;;;21.19;49.42;101369.97;2093178;28;2048;-72
2021/04/12 02:08:15;;;;;;;;;;;;;;;21.18;49.63;101369.13;2090779;28;1771;-73
2021/04/12 02:09:15;;;;;;;;;;;;;;;21.19;49.50;101361.41;2092639;28;2231;-72
2021/04/12 02:10:16;;;;;;;;;;;;;;;21.19;49.60;101367.09;2089283;28;1932;-72
2021/04/12 02:11:17;;;;;;;;;;;;;;;21.19;49.68;101373.63;2090385;28;1386;-72
2021/04/12 02:12:18;;;;;;;;;;;;;;;21.19;49.72;101367.94;2090226;28;1885;-72
2021/04/12 02:13:19;;;;;;;;;;;;;;;21.19;49.59;101373.63;2092433;28;2155;-72
2021/04/12 02:14:19;;;;;;;;;;;;;;;21.20;49.61;101369.63;2090427;28;1528;-73
2021/04/12 02:15:20;;;;;;;;;;;;;;;21.20;49.72;101365.94;2090390;28;1922;-72
2021/04/12 02:16:21;;;;;;;;;;;;;;;21.21;49.52;101371.28;2089014;28;1858;-72
2021/04/12 02:17:21;;;;;;;;;;;;;;;21.21;49.61;101371.28;2092903;28;1615;-72
2021/04/12 02:18:22;;;;;;;;;;;;;;;21.22;49.58;101363.56;2089528;28;1911;-72
2021/04/12 02:19:23;;;;;;;;;;;;;;;21.20;49.78;101366.78;2089054;28;2290;-72
2021/04/12 02:20:24;;;;;;;;;;;;;;;21.21;49.65;101367.63;2090218;28;1794;-73
2021/04/12 02:21:24;;;;;;;;;;;;;;;21.21;49.77;101368.44;2089093;28;1874;-72
2021/04/12 02:22:25;;;;;;;;;;;;;;;21.21;49.75;101368.44;2089714;28;1957;-72
2021/04/12 02:23:26;;;;;;;;;;;;;;;21.21;49.63;101365.59;2091377;28;1818;-72
2021/04/12 02:24:27;;;;;;;;;;;;;;;21.22;49.80;101370.09;2090026;28;1535;-73
2021/04/12 02:25:28;;;;;;;;;;;;;;;21.22;49.65;101361.56;2089513;28;1874;-72
2021/04/12 02:26:28;;;;;;;;;;;;;;;21.23;49.81;101370.97;2091857;28;1611;-72
2021/04/12 02:27:29;;;;;;;;;;;;;;;21.22;49.77;101367.25;2090432;28;1921;-71
2021/04/12 02:28:30;;;;;;;;;;;;;;;21.23;49.82;101368.13;2088882;28;1930;-73
2021/04/12 02:29:31;;;;;;;;;;;;;;;21.23;49.71;101362.41;2087340;28;1882;-72
2021/04/12 02:30:32;;;;;;;;;;;;;;;21.22;49.77;101364.41;2091161;28;1413;-72
2021/04/12 02:31:33;;;;;;;;;;;;;;;21.24;49.94;101362.06;2090421;28;1872;-73
2021/04/12 02:32:34;;;;;;;;;;;;;;;21.23;49.94;101362.41;2087508;28;1910;-72
2021/04/12 02:33:34;;;;;;;;;;;;;;;21.24;49.97;101361.25;2087693;28;1823;-72
2021/04/12 02:34:35;;;;;;;;;;;;;;;21.24;49.91;101359.22;2090853;28;1696;-73
2021/04/12 02:35:36;;;;;;;;;;;;;;;21.24;49.84;101358.38;2087585;28;2274;-73
2021/04/12 02:36:36;;;;;;;;;;;;;;;21.25;50.02;101362.91;2088606;28;1480;-72
2021/04/12 02:37:37;;;;;;;;;;;;;;;21.25;50.06;101363.72;2091265;28;1649;-72
2021/04/12 02:38:38;;;;;;;;;;;;;;;21.26;49.97;101365.41;2080582;28;1973;-72
2021/04/12 02:39:39;;;;;;;;;;;;;;;21.25;50.11;101363.72;2080324;28;1891;-72
2021/04/12 02:40:40;;;;;;;;;;;;;;;21.26;50.15;101375.97;2087341;28;1771;-72
2021/04/12 02:41:42;;;;;;;;;;;;;;;21.26;50.08;101371.09;2086484;28;1909;-72
2021/04/12 02:42:43;;;;;;;;;;;;;;;21.26;50.11;101371.09;2090694;28;1405;-72
2021/04/12 02:43:43;;;;;;;;;;;;;;;21.26;49.98;101367.44;2090689;28;1539;-72
2021/04/12 02:44:44;;;;;;;;;;;;;;;21.26;50.07;101370.28;2088700;28;1945;-72
2021/04/12 02:45:45;;;;;;;;;;;;;;;21.27;50.13;101367.06;2088582;28;2393;-72
2021/04/12 02:46:46;;;;;;;;;;;;;;;21.26;50.01;101368.25;2088611;28;2264;-72
2021/04/12 02:47:47;;;;;;;;;;;;;;;21.26;50.16;101362.56;2095770;28;1977;-72
2021/04/12 02:48:47;;;;;;;;;;;;;;;21.27;50.11;101358.53;2087899;28;2012;-72
2021/04/12 02:49:48;;;;;;;;;;;;;;;21.26;50.21;101362.56;2090981;28;2102;-72
2021/04/12 02:50:49;;;;;;;;;;;;;;;21.27;50.28;101364.22;2089745;28;1766;-72
2021/04/12 02:51:49;;;;;;;;;;;;;;;21.27;50.24;101369.91;2094566;28;1554;-73
2021/04/12 02:52:50;;;;;;;;;;;;;;;21.28;50.35;101376.44;2088574;28;1882;-72
2021/04/12 02:53:51;;;;;;;;;;;;;;;21.28;50.39;101376.44;2093366;28;2444;-72
2021/04/12 02:54:52;;;;;;;;;;;;;;;21.28;50.34;101377.28;2089750;28;1882;-72
2021/04/12 02:55:52;;;;;;;;;;;;;;;21.28;50.25;101373.59;2095761;28;2155;-73
2021/04/12 02:56:53;;;;;;;;;;;;;;;21.28;50.41;101374.44;2095354;28;1610;-72
2021/04/12 02:57:54;;;;;;;;;;;;;;;21.28;50.27;101380.16;2092948;28;1889;-72
2021/04/12 02:58:55;;;;;;;;;;;;;;;21.29;50.34;101370.41;2094322;28;1869;-72
2021/04/12 02:59:55;;;;;;;;;;;;;;;21.30;50.46;101357.00;2094294;28;2118;-72
2021/04/12 03:00:56;;;;;;;;;;;;;;;21.30;50.52;101357.00;2089956;28;2036;-72
2021/04/12 03:01:57;;;;;;;;;;;;;;;21.30;50.46;101357.84;2092701;28;1802;-72
2021/04/12 03:02:58;;;;;;;;;;;;;;;21.31;50.68;101361.53;2085907;28;1779;-72
2021/04/12 03:03:59;;;;;;;;;;;;;;;21.31;50.60;101365.22;2093309;28;1513;-72
2021/04/12 03:04:59;;;;;;;;;;;;;;;21.33;50.87;101364.88;2085418;28;1970;-73
2021/04/12 03:06:00;;;;;;;;;;;;;;;21.32;50.90;101371.75;2089881;28;1503;-73
2021/04/12 03:07:02;;;;;;;;;;;;;;;21.33;51.04;101379.91;2095160;28;1914;-72
2021/04/12 03:08:03;;;;;;;;;;;;;;;21.33;50.88;101374.22;2091507;28;1842;-73
2021/04/12 03:09:04;;;;;;;;;;;;;;;21.33;51.01;101379.91;2089647;28;1945;-73
2021/04/12 03:10:04;;;;;;;;;;;;;;;21.33;51.07;101379.91;2088611;28;1906;-73
2021/04/12 03:11:05;;;;;;;;;;;;;;;21.33;51.11;101382.78;2088856;28;1957;-72
2021/04/12 03:12:06;;;;;;;;;;;;;;;21.33;51.02;101379.91;2089166;28;1827;-73
2021/04/12 03:13:07;;;;;;;;;;;;;;;21.34;51.03;101380.78;2090947;28;1528;-72
2021/04/12 03:14:07;;;;;;;;;;;;;;;21.34;51.17;101378.78;2092823;28;1611;-72
2021/04/12 03:15:08;;;;;;;;;;;;;;;21.34;51.28;101375.91;2090873;28;1555;-72
2021/04/12 03:16:09;;;;;;;;;;;;;;;21.34;51.19;101375.91;2091014;28;1969;-72
2021/04/12 03:17:10;;;;;;;;;;;;;;;21.34;51.27;101375.91;2089161;28;1945;-73
2021/04/12 03:18:11;;;;;;;;;;;;;;;21.34;51.31;101375.09;2092416;28;1875;-72
2021/04/12 03:19:11;;;;;;;;;;;;;;;21.35;51.25;101380.44;2087808;28;1921;-73
2021/04/12 03:20:12;;;;;;;;;;;;;;;21.35;51.45;101382.44;2092508;28;1881;-74
2021/04/12 03:21:13;;;;;;;;;;;;;;;21.35;51.23;101380.44;2087209;28;2163;-73
2021/04/12 03:22:13;;;;;;;;;;;;;;;21.35;51.19;101371.06;2078994;28;2410;-73
2021/04/12 03:23:14;;;;;;;;;;;;;;;21.35;51.40;101383.28;2082190;28;1980;-72
2021/04/12 03:24:15;;;;;;;;;;;;;;;21.35;51.40;101379.59;2084982;28;1946;-73
2021/04/12 03:25:16;;;;;;;;;;;;;;;21.35;51.65;101379.59;2087269;28;1938;-72
2021/04/12 03:26:16;;;;;;;;;;;;;;;21.37;51.54;101382.13;2091713;28;1827;-72
2021/04/12 03:27:17;;;;;;;;;;;;;;;21.35;51.49;101377.59;2092671;28;1983;-72
2021/04/12 03:28:18;;;;;;;;;;;;;;;21.35;51.67;101371.88;2087969;28;2448;-73
2021/04/12 03:29:26;;;;;;;;;;;;;;;21.35;51.78;101374.72;2089966;28;2083;-72
2021/04/12 03:30:26;;;;;;;;;;;;;;;21.37;51.93;101380.13;2091263;28;1641;-71
2021/04/12 03:31:27;;;;;;;;;;;;;;;21.37;51.89;101379.28;2088699;28;1922;-72
2021/04/12 03:32:28;;;;;;;;;;;;;;;21.38;51.98;101386.66;2087486;28;2014;-69
2021/04/12 03:33:29;;;;;;;;;;;;;;;21.38;51.93;101386.66;2088890;28;2038;-70
2021/04/12 03:34:29;;;;;;;;;;;;;;;21.38;52.00;101389.50;2094193;28;1833;-70
2021/04/12 03:35:30;;;;;;;;;;;;;;;21.39;52.16;101388.31;2087691;28;2260;-70
2021/04/12 03:36:31;;;;;;;;;;;;;;;21.38;52.13;101393.19;2090074;28;1749;-70
2021/04/12 03:37:32;;;;;;;;;;;;;;;21.38;52.30;101392.34;2079306;28;1989;-70
2021/04/12 03:38:32;;;;;;;;;;;;;;;21.37;52.18;101390.66;2084314;28;2569;-70
2021/04/12 03:39:34;;;;;;;;;;;;;;;21.38;52.04;101392.34;2086308;28;2006;-71
2021/04/12 03:40:35;;;;;;;;;;;;;;;21.38;52.12;101386.66;2090766;28;1597;-71
2021/04/12 03:41:36;;;;;;;;;;;;;;;21.39;52.08;101396.84;2087732;28;2074;-75
2021/04/12 03:42:37;;;;;;;;;;;;;;;21.37;52.08;101394.38;2093418;28;1450;-74
2021/04/12 03:43:37;;;;;;;;;;;;;;;21.38;52.29;101398.88;2091808;28;1852;-73
2021/04/12 03:44:38;;;;;;;;;;;;;;;21.38;52.32;101396.03;2088424;28;2440;-73
2021/04/12 03:45:39;;;;;;;;;;;;;;;21.39;52.39;101382.63;2091620;28;1917;-72
2021/04/12 03:46:39;;;;;;;;;;;;;;;21.38;52.12;101393.19;2090229;28;2514;-71
2021/04/12 03:47:40;;;;;;;;;;;;;;;21.39;52.12;101391.16;2086834;28;1977;-72
2021/04/12 03:48:41;;;;;;;;;;;;;;;21.39;52.28;101391.16;2083298;28;1991;-74
2021/04/12 03:49:42;;;;;;;;;;;;;;;21.38;52.33;101387.47;2090624;28;2019;-73
2021/04/12 03:50:43;;;;;;;;;;;;;;;21.38;52.21;101392.34;2090677;28;2058;-73
2021/04/12 03:51:44;;;;;;;;;;;;;;;21.38;52.40;101392.34;2086750;28;2483;-74
2021/04/12 03:52:45;;;;;;;;;;;;;;;21.38;52.34;101396.03;2093008;28;1837;-73
2021/04/12 03:53:45;;;;;;;;;;;;;;;21.39;52.38;101397.69;2087596;28;2112;-73
2021/04/12 03:54:46;;;;;;;;;;;;;;;21.39;52.30;101399.69;2086464;28;2169;-72
2021/04/12 03:55:47;;;;;;;;;;;;;;;21.40;52.38;101407.06;2091104;28;1863;-72
2021/04/12 03:56:47;;;;;;;;;;;;;;;21.39;52.43;101411.09;2090627;28;1972;-72
2021/04/12 03:57:48;;;;;;;;;;;;;;;21.41;52.44;101408.72;2093624;28;2078;-74
2021/04/12 03:58:49;;;;;;;;;;;;;;;21.41;52.53;101420.13;2089307;28;2265;-75
2021/04/12 03:59:50;;;;;;;;;;;;;;;21.39;52.46;101411.91;2091603;28;2019;-74
2021/04/12 04:00:51;;;;;;;;;;;;;;;21.41;52.36;101414.44;2078882;28;2040;-74
2021/04/12 04:01:52;;;;;;;;;;;;;;;21.41;52.56;101417.28;2086101;28;2019;-74
2021/04/12 04:02:53;;;;;;;;;;;;;;;21.41;52.36;101420.94;2088902;28;2015;-74
2021/04/12 04:03:54;;;;;;;;;;;;;;;21.41;52.35;101420.13;2094881;28;1940;-71
2021/04/12 04:04:55;;;;;;;;;;;;;;;21.41;52.39;101422.97;2090815;28;2257;-71
2021/04/12 04:05:55;;;;;;;;;;;;;;;21.42;52.40;101424.63;2093506;28;1838;-72
2021/04/12 04:06:56;;;;;;;;;;;;;;;21.42;52.35;101427.47;2089486;28;2050;-72
2021/04/12 04:07:57;;;;;;;;;;;;;;;21.42;52.45;101438.88;2089159;28;2439;-71
2021/04/12 04:08:58;;;;;;;;;;;;;;;21.41;52.54;101431.50;2088167;28;2120;-70
2021/04/12 04:09:58;;;;;;;;;;;;;;;21.41;52.46;101437.19;2089108;28;2095;-71
2021/04/12 04:10:59;;;;;;;;;;;;;;;21.42;52.45;101439.72;2091397;28;2027;-71
2021/04/12 04:12:02;;;;;;;;;;;;;;;21.42;52.22;101441.72;2091771;28;2268;-71
2021/04/12 04:13:02;;;;;;;;;;;;;;;21.42;52.36;101436.00;2091990;28;2083;-69
2021/04/12 04:14:03;;;;;;;;;;;;;;;21.41;52.42;101438.03;2087545;28;1894;-69
2021/04/12 04:15:04;;;;;;;;;;;;;;;21.40;52.22;101449.78;2089635;28;2295;-70
2021/04/12 04:16:05;;;;;;;;;;;;;;;21.38;52.33;101446.44;2089546;28;2687;-67
2021/04/12 04:17:05;;;;;;;;;;;;;;;21.37;52.19;101454.13;2090895;28;1735;-68
2021/04/12 04:18:06;;;;;;;;;;;;;;;21.37;52.32;101447.59;2088120;28;1866;-68
2021/04/12 04:19:07;;;;;;;;;;;;;;;21.35;52.13;101451.59;2092017;28;1944;-70
2021/04/12 04:20:08;;;;;;;;;;;;;;;21.34;52.24;101455.63;2092457;28;1775;-69
2021/04/12 04:21:08;;;;;;;;;;;;;;;21.35;52.04;101467.84;2089262;28;1910;-71
2021/04/12 04:22:09;;;;;;;;;;;;;;;21.34;52.11;101449.94;2087122;28;1644;-73
2021/04/12 04:23:10;;;;;;;;;;;;;;;21.35;52.10;101456.44;2089104;28;1943;-69
2021/04/12 04:24:11;;;;;;;;;;;;;;;21.34;52.11;101455.63;2087552;28;1958;-73
2021/04/12 04:25:11;;;;;;;;;;;;;;;21.35;51.96;101454.44;2090322;28;1863;-72
2021/04/12 04:26:12;;;;;;;;;;;;;;;21.37;52.10;101461.81;2092569;28;2065;-69
2021/04/12 04:27:13;;;;;;;;;;;;;;;21.37;52.08;101464.66;2098988;28;1541;-69
2021/04/12 04:28:14;;;;;;;;;;;;;;;21.38;51.88;101469.19;2092383;28;2106;-69
2021/04/12 04:29:15;;;;;;;;;;;;;;;21.38;51.91;101470.03;2094738;28;1560;-70
2021/04/12 04:30:16;;;;;;;;;;;;;;;21.38;51.87;101466.34;2098057;28;1892;-72
2021/04/12 04:31:24;;;;;;;;;;;;;;;21.39;51.82;101471.69;2091691;28;2019;-71
2021/04/12 04:32:25;;;;;;;;;;;;;;;21.39;51.89;101473.72;2094239;28;1510;-71
2021/04/12 04:33:26;;;;;;;;;;;;;;;21.38;51.96;101472.88;2094462;28;1956;-72
2021/04/12 04:34:27;;;;;;;;;;;;;;;21.39;51.88;101473.72;2089286;28;2052;-72
2021/04/12 04:35:27;;;;;;;;;;;;;;;21.39;51.79;101476.56;2088583;28;3014;-72
2021/04/12 04:36:28;;;;;;;;;;;;;;;21.39;51.80;101470.84;2093631;28;2106;-72
2021/04/12 04:37:30;;;;;;;;;;;;;;;21.40;51.89;101483.94;2095501;28;1647;-71
2021/04/12 04:38:34;;;;;;;;;;;;;;;21.39;51.81;101487.94;2094737;28;2027;-71
2021/04/12 04:39:35;;;;;;;;;;;;;;;21.39;51.97;101482.25;2089545;28;2082;-71
2021/04/12 04:40:35;;;;;;;;;;;;;;;21.39;52.01;101482.25;2091754;28;2009;-71
2021/04/12 04:41:36;;;;;;;;;;;;;;;21.39;51.77;101485.09;2094721;28;1851;-71
2021/04/12 04:42:37;;;;;;;;;;;;;;;21.39;51.95;101488.75;2090501;28;2134;-71
2021/04/12 04:43:37;;;;;;;;;;;;;;;21.39;51.84;101485.09;2090310;28;2217;-71
2021/04/12 04:44:38;;;;;;;;;;;;;;;21.39;51.90;101494.47;2095179;28;2113;-70
2021/04/12 04:45:39;;;;;;;;;;;;;;;21.40;51.87;101498.16;2090309;28;2106;-72
2021/04/12 04:46:40;;;;;;;;;;;;;;;21.40;51.92;101489.63;2090726;28;2043;-71
2021/04/12 04:47:41;;;;;;;;;;;;;;;21.39;52.07;101494.47;2091503;28;1910;-71
2021/04/12 04:48:42;;;;;;;;;;;;;;;21.40;51.88;101495.31;2088488;28;2261;-71
2021/04/12 04:49:42;;;;;;;;;;;;;;;21.39;51.94;101494.47;2089882;28;1909;-72
2021/04/12 04:50:44;;;;;;;;;;;;;;;21.40;52.07;101498.16;2090166;28;2097;-68
2021/04/12 04:51:44;;;;;;;;;;;;;;;21.40;51.98;101499.00;2091520;28;1833;-68
2021/04/12 04:52:45;;;;;;;;;;;;;;;21.39;52.10;101499.31;2093734;28;1677;-68
2021/04/12 04:53:46;;;;;;;;;;;;;;;21.36;52.02;101506.50;2092326;28;1994;-67
2021/04/12 04:54:47;;;;;;;;;;;;;;;21.34;51.96;101504.00;2094338;28;1547;-69
2021/04/12 04:55:47;;;;;;;;;;;;;;;21.24;49.85;101509.22;2094881;28;1845;-72
2021/04/12 04:56:48;;;;;;;;;;;;;;;21.11;48.91;101508.22;2092579;28;2031;-70
2021/04/12 04:57:49;;;;;;;;;;;;;;;21.01;47.30;101514.28;2092697;28;2050;-73
2021/04/12 04:58:50;;;;;;;;;;;;;;;20.93;46.92;101517.97;2089185;28;1905;-73
2021/04/12 04:59:50;;;;;;;;;;;;;;;20.89;46.71;101520.63;2094191;28;2087;-69
2021/04/12 05:00:51;;;;;;;;;;;;;;;20.84;46.24;101527.34;2088918;28;2136;-68
2021/04/12 05:01:52;;;;;;;;;;;;;;;20.77;45.53;101521.31;2089447;28;2120;-68
2021/04/12 05:02:53;;;;;;;;;;;;;;;20.71;44.75;101530.38;2089028;28;1900;-71
2021/04/12 05:03:53;;;;;;;;;;;;;;;20.66;44.69;101534.19;2086708;28;1540;-75
2021/04/12 05:04:54;;;;;;;;;;;;;;;20.63;44.39;101537.72;2090630;28;1970;-70
2021/04/12 05:05:55;;;;;;;;;;;;;;;20.60;44.20;101538.38;2093146;28;1933;-70
2021/04/12 05:06:56;;;;;;;;;;;;;;;20.63;45.07;101535.69;2089996;28;1875;-69
2021/04/12 05:07:57;;;;;;;;;;;;;;;20.66;45.09;101548.41;2092958;28;1918;-70
2021/04/12 05:08:57;;;;;;;;;;;;;;;20.61;44.46;101542.88;2089883;28;1991;-70
2021/04/12 05:09:58;;;;;;;;;;;;;;;20.56;43.80;101535.34;2093102;28;1512;-70
2021/04/12 05:10:59;;;;;;;;;;;;;;;20.50;43.11;101548.03;2093057;28;1428;-71
2021/04/12 05:12:00;;;;;;;;;;;;;;;20.49;44.36;101537.84;2091128;28;1937;-69
2021/04/12 05:13:01;;;;;;;;;;;;;;;20.56;44.65;101549.56;2091509;28;1597;-68
2021/04/12 05:14:02;;;;;;;;;;;;;;;20.64;45.12;101543.03;2090711;28;1559;-71
2021/04/12 05:15:02;;;;;;;;;;;;;;;20.71;45.42;101547.41;2092565;28;1440;-68
2021/04/12 05:16:03;;;;;;;;;;;;;;;20.74;45.64;101550.44;2087314;28;2868;-69
2021/04/12 05:17:04;;;;;;;;;;;;;;;20.77;45.84;101546.91;2089082;28;1860;-69